createdAt,value
2022-09-11T00:01:29.268Z,100763.03
2022-09-11T00:03:56.632Z,100771.41
2022-09-11T00:06:29.747Z,100767.59
2022-09-11T00:09:02.819Z,100773.94
2022-09-11T00:11:33.200Z,100776.94
2022-09-11T00:14:00.533Z,100776.22
2022-09-11T00:16:30.673Z,100777.31
2022-09-11T00:19:00.208Z,100779.69
2022-09-11T00:21:28.098Z,100779.00
2022-09-11T00:23:54.915Z,100777.81
2022-09-11T00:26:22.083Z,100781.00
2022-09-11T00:28:50.658Z,100775.28
2022-09-11T00:31:19.928Z,100775.63
2022-09-11T00:33:46.700Z,100774.19
2022-09-11T00:36:19.891Z,100772.84
2022-09-11T00:38:47.817Z,100773.94
2022-09-11T00:41:17.945Z,100782.91
2022-09-11T00:44:05.413Z,100782.31
2022-09-11T00:46:37.453Z,100783.59
2022-09-11T00:49:22.468Z,100783.84
2022-09-11T00:51:53.689Z,100785.88
2022-09-11T00:54:26.517Z,100790.53
2022-09-11T00:56:54.492Z,100785.72
2022-09-11T00:59:26.958Z,100779.06
2022-09-11T01:01:54.710Z,100784.56
2022-09-11T01:04:23.145Z,100783.09
2022-09-11T01:07:00.276Z,100783.34
2022-09-11T01:09:29.466Z,100786.09
2022-09-11T01:12:10.590Z,100782.66
2022-09-11T01:14:46.957Z,100788.38
2022-09-11T01:17:28.708Z,100779.88
2022-09-11T01:20:20.080Z,100777.38
2022-09-11T01:22:50.116Z,100777.13
2022-09-11T01:25:31.377Z,100788.97
2022-09-11T01:28:01.091Z,100781.22
2022-09-11T01:30:40.431Z,100776.69
2022-09-11T01:33:12.946Z,100779.66
2022-09-11T01:35:49.422Z,100779.66
2022-09-11T01:38:34.384Z,100786.09
2022-09-11T01:41:08.100Z,100781.91
2022-09-11T01:43:40.533Z,100782.03
2022-09-11T01:46:08.993Z,100776.28
2022-09-11T01:48:41.528Z,100786.91
2022-09-11T01:51:13.330Z,100787.84
2022-09-11T01:53:49.763Z,100791.31
2022-09-11T01:56:22.445Z,100783.22
2022-09-11T01:58:56.101Z,100790.88
2022-09-11T02:01:28.913Z,100794.56
2022-09-11T02:04:10.687Z,100788.69
2022-09-11T02:06:52.232Z,100792.41
2022-09-11T02:09:25.206Z,100791.47
2022-09-11T02:11:55.016Z,100788.84
2022-09-11T02:14:30.154Z,100792.91
2022-09-11T02:17:21.856Z,100795.41
2022-09-11T02:19:49.268Z,100798.47
2022-09-11T02:22:15.855Z,100803.53
2022-09-11T02:24:42.600Z,100792.19
2022-09-11T02:27:17.293Z,100796.47
2022-09-11T02:29:44.047Z,100800.56
2022-09-11T02:32:13.524Z,100798.25
2022-09-11T02:34:42.621Z,100800.16
2022-09-11T02:37:47.388Z,100807.34
2022-09-11T02:40:27.177Z,100802.53
2022-09-11T02:43:11.905Z,100805.53
2022-09-11T02:45:43.994Z,100799.78
2022-09-11T02:48:29.129Z,100796.16
2022-09-11T02:51:15.781Z,100800.59
2022-09-11T02:54:04.492Z,100798.78
2022-09-11T02:57:02.458Z,100797.56
2022-09-11T02:59:42.421Z,100801.19
2022-09-11T03:02:15.906Z,100804.97
2022-09-11T03:04:42.585Z,100807.69
2022-09-11T03:07:09.317Z,100804.13
2022-09-11T03:09:35.961Z,100815.72
2022-09-11T03:12:05.156Z,100814.66
2022-09-11T03:14:31.728Z,100813.59
2022-09-11T03:16:58.820Z,100809.56
2022-09-11T03:19:25.465Z,100820.06
2022-09-11T03:21:52.178Z,100823.63
2022-09-11T03:24:18.745Z,100819.56
2022-09-11T03:26:45.797Z,100825.97
2022-09-11T03:29:12.482Z,100840.41
2022-09-11T03:31:39.537Z,100846.75
2022-09-11T03:34:06.668Z,100849.97
2022-09-11T03:36:34.487Z,100846.06
2022-09-11T03:39:01.558Z,100852.31
2022-09-11T03:41:28.330Z,100842.81
2022-09-11T03:43:54.973Z,100848.91
2022-09-11T03:46:21.583Z,100854.59
2022-09-11T03:48:48.213Z,100856.16
2022-09-11T03:51:15.676Z,100860.28
2022-09-11T03:53:43.048Z,100866.34
2022-09-11T03:56:11.198Z,100864.56
2022-09-11T03:58:38.032Z,100865.41
2022-09-11T04:01:12.655Z,100866.25
2022-09-11T04:03:40.664Z,100871.41
2022-09-11T04:06:08.116Z,100863.84
2022-09-11T04:08:34.949Z,100866.75
2022-09-11T04:11:04.697Z,100870.56
2022-09-11T04:13:33.931Z,100873.69
2022-09-11T04:16:10.646Z,100875.94
2022-09-11T04:18:39.044Z,100880.91
2022-09-11T04:21:07.076Z,100879.28
2022-09-11T04:23:34.170Z,100887.56
2022-09-11T04:26:01.519Z,100891.75
2022-09-11T04:28:29.831Z,100889.13
2022-09-11T04:30:59.258Z,100895.91
2022-09-11T04:33:25.836Z,100885.50
2022-09-11T04:35:52.440Z,100897.59
2022-09-11T04:38:18.997Z,100893.38
2022-09-11T04:40:45.715Z,100905.00
2022-09-11T04:43:12.498Z,100901.16
2022-09-11T04:45:40.519Z,100901.38
2022-09-11T04:48:07.446Z,100904.03
2022-09-11T04:50:34.048Z,100904.16
2022-09-11T04:53:00.681Z,100897.94
2022-09-11T04:55:27.299Z,100900.34
2022-09-11T04:57:54.082Z,100903.88
2022-09-11T05:00:21.225Z,100900.16
2022-09-11T05:02:47.895Z,100900.50
2022-09-11T05:05:14.531Z,100902.75
2022-09-11T05:07:41.104Z,100908.00
2022-09-11T05:10:08.330Z,100903.91
2022-09-11T05:12:34.917Z,100905.75
2022-09-11T05:15:01.516Z,100910.66
2022-09-11T05:17:28.090Z,100906.84
2022-09-11T05:19:55.993Z,100912.97
2022-09-11T05:22:23.268Z,100913.44
2022-09-11T05:24:49.883Z,100915.00
2022-09-11T05:27:16.481Z,100917.88
2022-09-11T05:29:43.044Z,100919.31
2022-09-11T05:32:09.894Z,100918.34
2022-09-11T05:34:36.469Z,100927.94
2022-09-11T05:37:03.229Z,100930.31
2022-09-11T05:39:29.800Z,100933.31
2022-09-11T05:41:56.559Z,100934.63
2022-09-11T05:44:23.207Z,100942.44
2022-09-11T05:46:49.826Z,100938.00
2022-09-11T05:49:16.395Z,100945.75
2022-09-11T05:51:43.039Z,100952.09
2022-09-11T05:54:09.672Z,100960.34
2022-09-11T05:56:36.773Z,100957.22
2022-09-11T05:59:03.589Z,100962.75
2022-09-11T06:01:31.273Z,100974.84
2022-09-11T06:03:58.074Z,100977.97
2022-09-11T06:06:25.517Z,100982.53
2022-09-11T06:08:52.992Z,100981.44
2022-09-11T06:11:21.524Z,100984.66
2022-09-11T06:13:49.249Z,100989.53
2022-09-11T06:16:18.982Z,100991.19
2022-09-11T06:18:50.248Z,100996.03
2022-09-11T06:21:20.228Z,100996.88
2022-09-11T06:23:48.278Z,101008.75
2022-09-11T06:26:17.353Z,100998.41
2022-09-11T06:28:44.430Z,101001.91
2022-09-11T06:31:16.439Z,101015.56
2022-09-11T06:33:44.029Z,101009.44
2022-09-11T06:36:19.388Z,101009.66
2022-09-11T06:38:46.912Z,101012.56
2022-09-11T06:41:15.573Z,101011.72
2022-09-11T06:43:42.843Z,101014.81
2022-09-11T06:46:13.166Z,101025.81
2022-09-11T06:48:44.565Z,101020.78
2022-09-11T06:51:13.536Z,101014.22
2022-09-11T06:53:41.416Z,101020.00
2022-09-11T06:56:12.873Z,101013.16
2022-09-11T06:58:40.130Z,101014.03
2022-09-11T07:01:15.496Z,101023.09
2022-09-11T07:03:47.398Z,101020.22
2022-09-11T07:06:16.244Z,101015.31
2022-09-11T07:08:43.052Z,101016.53
2022-09-11T07:11:13.751Z,101022.06
2022-09-11T07:13:40.927Z,101024.59
2022-09-11T07:16:10.133Z,101021.53
2022-09-11T07:18:38.900Z,101026.69
2022-09-11T07:21:17.468Z,101028.44
2022-09-11T07:23:51.193Z,101033.09
2022-09-11T07:26:18.702Z,101024.03
2022-09-11T07:28:45.314Z,101026.22
2022-09-11T07:31:20.000Z,101033.47
2022-09-11T07:33:48.930Z,101033.00
2022-09-11T07:36:19.030Z,101037.38
2022-09-11T07:38:47.836Z,101034.75
2022-09-11T07:41:16.813Z,101043.56
2022-09-11T07:43:48.311Z,101042.34
2022-09-11T07:46:15.254Z,101039.97
2022-09-11T07:48:43.168Z,101041.63
2022-09-11T07:51:12.650Z,101041.91
2022-09-11T07:53:44.368Z,101047.97
2022-09-11T07:56:13.507Z,101049.72
2022-09-11T07:58:41.634Z,101049.09
2022-09-11T08:01:12.815Z,101051.59
2022-09-11T08:03:40.185Z,101049.31
2022-09-11T08:06:08.970Z,101053.78
2022-09-11T08:08:36.416Z,101056.81
2022-09-11T08:11:11.795Z,101057.81
2022-09-11T08:13:39.126Z,101063.19
2022-09-11T08:16:06.883Z,101057.28
2022-09-11T08:18:35.284Z,101058.44
2022-09-11T08:21:10.766Z,101059.94
2022-09-11T08:23:41.583Z,101067.72
2022-09-11T08:26:10.697Z,101068.16
2022-09-11T08:28:38.805Z,101073.69
2022-09-11T08:31:06.738Z,101078.09
2022-09-11T08:33:33.673Z,101077.81
2022-09-11T08:36:02.341Z,101078.69
2022-09-11T08:38:29.940Z,101084.84
2022-09-11T08:40:59.172Z,101079.25
2022-09-11T08:43:33.522Z,101078.69
2022-09-11T08:46:05.567Z,101082.72
2022-09-11T08:48:48.054Z,101086.72
2022-09-11T08:51:17.584Z,101087.97
2022-09-11T08:53:45.689Z,101082.28
2022-09-11T08:56:18.469Z,101084.13
2022-09-11T08:59:00.346Z,101092.00
2022-09-11T09:02:01.626Z,101084.97
2022-09-11T09:05:14.617Z,101090.06
2022-09-11T09:08:01.704Z,101089.47
2022-09-11T09:10:35.502Z,101085.97
2022-09-11T09:13:39.678Z,101089.41
2022-09-11T09:16:31.418Z,101094.09
2022-09-11T09:19:10.593Z,101091.72
2022-09-11T09:22:21.422Z,101102.34
2022-09-11T09:24:50.813Z,101097.66
2022-09-11T09:27:35.493Z,101096.44
2022-09-11T09:30:13.475Z,101096.38
2022-09-11T09:32:53.424Z,101102.22
2022-09-11T09:35:25.195Z,101104.09
2022-09-11T09:37:51.683Z,101106.53
2022-09-11T09:40:19.186Z,101101.16
2022-09-11T09:43:01.078Z,101096.28
2022-09-11T09:45:37.616Z,101092.16
2022-09-11T09:48:06.943Z,101105.28
2022-09-11T09:50:36.013Z,101099.31
2022-09-11T09:53:15.000Z,101098.28
2022-09-11T09:55:42.777Z,101102.59
2022-09-11T09:58:09.825Z,101106.16
2022-09-11T10:00:37.904Z,101097.69
2022-09-11T10:03:22.541Z,101103.97
2022-09-11T10:05:53.374Z,101110.13
2022-09-11T10:08:33.878Z,101112.34
2022-09-11T10:11:03.888Z,101106.38
2022-09-11T10:13:41.365Z,101112.31
2022-09-11T10:16:32.752Z,101111.84
2022-09-11T10:19:00.420Z,101116.03
2022-09-11T10:21:29.884Z,101115.56
2022-09-11T10:23:58.123Z,101112.16
2022-09-11T10:26:27.768Z,101116.66
2022-09-11T10:28:56.261Z,101121.38
2022-09-11T10:31:23.049Z,101118.72
2022-09-11T10:33:59.872Z,101113.75
2022-09-11T10:36:29.265Z,101117.91
2022-09-11T10:38:58.893Z,101110.00
2022-09-11T10:41:27.633Z,101116.19
2022-09-11T10:43:56.052Z,101116.66
2022-09-11T10:46:40.292Z,101117.16
2022-09-11T10:49:20.056Z,101112.19
2022-09-11T10:52:19.567Z,101129.25
2022-09-11T10:55:06.036Z,101119.88
2022-09-11T10:57:53.036Z,101124.72
2022-09-11T11:00:26.591Z,101117.38
2022-09-11T11:03:04.369Z,101121.25
2022-09-11T11:05:40.839Z,101123.09
2022-09-11T11:08:19.474Z,101116.19
2022-09-11T11:10:56.304Z,101122.59
2022-09-11T11:13:22.909Z,101131.44
2022-09-11T11:16:07.970Z,101135.38
2022-09-11T11:18:59.048Z,101127.94
2022-09-11T11:21:38.280Z,101134.22
2022-09-11T11:24:13.550Z,101132.94
2022-09-11T11:27:16.272Z,101123.91
2022-09-11T11:30:02.478Z,101132.59
2022-09-11T11:32:43.393Z,101132.88
2022-09-11T11:35:28.326Z,101123.75
2022-09-11T11:38:22.442Z,101131.50
2022-09-11T11:41:03.178Z,101124.03
2022-09-11T11:43:34.382Z,101123.16
2022-09-11T11:46:08.484Z,101115.47
2022-09-11T11:48:59.434Z,101110.22
2022-09-11T11:51:30.276Z,101115.47
2022-09-11T11:54:10.037Z,101121.94
2022-09-11T11:56:59.833Z,101114.97
2022-09-11T12:00:09.093Z,101117.88
2022-09-11T12:03:18.347Z,101127.56
2022-09-11T12:05:45.232Z,101125.72
2022-09-11T12:08:16.790Z,101127.47
2022-09-11T12:10:56.362Z,101133.28
2022-09-11T12:13:30.745Z,101132.81
2022-09-11T12:16:16.100Z,101130.59
2022-09-11T12:19:04.388Z,101138.00
2022-09-11T12:21:31.702Z,101136.44
2022-09-11T12:23:58.422Z,101134.44
2022-09-11T12:26:26.778Z,101136.97
2022-09-11T12:29:20.295Z,101142.25
2022-09-11T12:31:49.836Z,101138.00
2022-09-11T12:34:18.576Z,101138.06
2022-09-11T12:36:56.476Z,101150.75
2022-09-11T12:39:32.388Z,101143.59
2022-09-11T12:42:23.648Z,101142.09
2022-09-11T12:44:50.257Z,101139.88
2022-09-11T12:47:27.481Z,101136.53
2022-09-11T12:49:59.600Z,101138.13
2022-09-11T12:52:32.192Z,101153.50
2022-09-11T12:55:07.803Z,101147.38
2022-09-11T12:57:38.666Z,101148.91
2022-09-11T13:00:11.842Z,101139.78
2022-09-11T13:02:42.981Z,101143.59
2022-09-11T13:05:37.066Z,101140.56
2022-09-11T13:08:26.655Z,101138.41
2022-09-11T13:10:53.753Z,101141.72
2022-09-11T13:13:35.535Z,101148.47
2022-09-11T13:16:19.267Z,101148.41
2022-09-11T13:18:46.251Z,101144.88
2022-09-11T13:21:19.069Z,101133.03
2022-09-11T13:23:48.160Z,101134.69
2022-09-11T13:26:28.798Z,101128.94
2022-09-11T13:28:58.605Z,101118.88
2022-09-11T13:31:36.827Z,101111.34
2022-09-11T13:34:07.218Z,101105.78
2022-09-11T13:36:35.814Z,101108.53
2022-09-11T13:39:04.538Z,101106.44
2022-09-11T13:41:36.865Z,101119.16
2022-09-11T13:44:09.520Z,101113.09
2022-09-11T13:46:48.033Z,101121.03
2022-09-11T13:49:36.257Z,101124.97
2022-09-11T13:52:06.975Z,101129.69
2022-09-11T13:54:41.269Z,101124.03
2022-09-11T13:57:23.291Z,101132.41
2022-09-11T14:00:00.405Z,101130.81
2022-09-11T14:02:43.847Z,101126.69
2022-09-11T14:05:13.833Z,101136.22
2022-09-11T14:07:50.247Z,101132.94
2022-09-11T14:10:42.957Z,101135.88
2022-09-11T14:13:18.162Z,101137.13
2022-09-11T14:16:09.943Z,101133.78
2022-09-11T14:18:43.517Z,101136.75
2022-09-11T14:21:16.116Z,101128.81
2022-09-11T14:23:50.014Z,101136.09
2022-09-11T14:26:22.910Z,101137.94
2022-09-11T14:28:55.676Z,101130.03
2022-09-11T14:31:32.576Z,101142.50
2022-09-11T14:34:20.929Z,101146.75
2022-09-11T14:37:02.770Z,101141.50
2022-09-11T14:39:38.348Z,101132.50
2022-09-11T14:42:12.664Z,101139.88
2022-09-11T14:44:43.253Z,101135.28
2022-09-11T14:47:20.750Z,101142.78
2022-09-11T14:49:48.374Z,101138.66
2022-09-11T14:52:24.908Z,101134.19
2022-09-11T14:54:52.041Z,101138.53
2022-09-11T14:57:25.061Z,101137.69
2022-09-11T14:59:52.611Z,101143.53
2022-09-11T15:02:27.588Z,101136.47
2022-09-11T15:04:56.681Z,101139.00
2022-09-11T15:07:25.033Z,101136.19
2022-09-11T15:09:55.115Z,101139.50
2022-09-11T15:12:22.409Z,101142.69
2022-09-11T15:14:57.987Z,101135.88
2022-09-11T15:17:25.622Z,101140.97
2022-09-11T15:19:53.196Z,101138.66
2022-09-11T15:22:20.013Z,101134.63
2022-09-11T15:24:49.833Z,101137.53
2022-09-11T15:27:19.155Z,101138.69
2022-09-11T15:29:46.246Z,101137.09
2022-09-11T15:32:14.538Z,101136.69
2022-09-11T15:34:42.076Z,101132.38
2022-09-11T15:37:08.734Z,101138.78
2022-09-11T15:39:35.452Z,101133.91
2022-09-11T15:42:02.201Z,101132.59
2022-09-11T15:44:29.629Z,101130.91
2022-09-11T15:46:58.819Z,101128.88
2022-09-11T15:49:28.526Z,101132.97
2022-09-11T15:51:56.454Z,101134.66
2022-09-11T15:54:23.546Z,101143.72
2022-09-11T15:56:51.471Z,101148.31
2022-09-11T15:59:18.226Z,101148.53
2022-09-11T16:01:45.684Z,101135.16
2022-09-11T16:04:15.126Z,101139.50
2022-09-11T16:06:44.261Z,101145.63
2022-09-11T16:09:25.792Z,101138.66
2022-09-11T16:11:54.601Z,101135.59
2022-09-11T16:14:25.448Z,101129.72
2022-09-11T16:16:52.656Z,101138.66
2022-09-11T16:19:21.462Z,101125.81
2022-09-11T16:21:49.303Z,101135.72
2022-09-11T16:24:16.216Z,101121.78
2022-09-11T16:26:44.404Z,101135.44
2022-09-11T16:29:13.144Z,101136.56
2022-09-11T16:31:40.230Z,101136.56
2022-09-11T16:34:07.764Z,101128.03
2022-09-11T16:36:41.942Z,101128.88
2022-09-11T16:39:11.539Z,101131.09
2022-09-11T16:41:39.199Z,101129.97
2022-09-11T16:44:12.394Z,101126.75
2022-09-11T16:46:40.755Z,101126.47
2022-09-11T16:49:07.414Z,101122.13
2022-09-11T16:51:34.344Z,101119.19
2022-09-11T16:54:01.416Z,101121.63
2022-09-11T16:56:28.196Z,101121.59
2022-09-11T16:58:55.433Z,101118.91
2022-09-11T17:01:24.791Z,101121.94
2022-09-11T17:03:53.060Z,101126.94
2022-09-11T17:06:20.877Z,101123.00
2022-09-11T17:08:50.569Z,101118.38
2022-09-11T17:11:19.789Z,101126.56
2022-09-11T17:13:47.072Z,101131.41
2022-09-11T17:16:17.684Z,101132.88
2022-09-11T17:18:49.848Z,101130.19
2022-09-11T17:21:17.444Z,101126.84
2022-09-11T17:23:44.184Z,101129.75
2022-09-11T17:26:13.725Z,101130.69
2022-09-11T17:28:41.950Z,101132.28
2022-09-11T17:31:11.206Z,101134.66
2022-09-11T17:33:40.242Z,101132.16
2022-09-11T17:36:10.008Z,101135.63
2022-09-11T17:38:38.141Z,101140.06
2022-09-11T17:41:08.141Z,101136.72
2022-09-11T17:43:36.609Z,101137.81
2022-09-11T17:46:15.300Z,101139.75
2022-09-11T17:48:42.362Z,101138.19
2022-09-11T17:51:21.318Z,101144.69
2022-09-11T17:53:54.092Z,101134.66
2022-09-11T17:56:23.748Z,101132.63
2022-09-11T17:58:56.740Z,101134.94
2022-09-11T18:01:25.302Z,101143.34
2022-09-11T18:03:57.286Z,101139.53
2022-09-11T18:06:29.577Z,101134.31
2022-09-11T18:09:01.953Z,101147.41
2022-09-11T18:11:32.104Z,101142.03
2022-09-11T18:14:00.318Z,101136.78
2022-09-11T18:16:27.175Z,101145.31
2022-09-11T18:18:55.589Z,101135.50
2022-09-11T18:21:22.772Z,101137.91
2022-09-11T18:27:19.910Z,101157.69
2022-09-11T18:29:46.670Z,101142.72
2022-09-11T18:32:13.373Z,101157.41
2022-09-11T18:34:40.026Z,101160.41
2022-09-11T18:37:07.678Z,101156.34
2022-09-11T18:39:34.488Z,101161.63
2022-09-11T18:42:01.525Z,101177.06
2022-09-11T18:44:28.166Z,101174.03
2022-09-11T18:46:55.746Z,101176.78
2022-09-11T18:49:22.858Z,101171.75
2022-09-11T18:51:49.574Z,101172.94
2022-09-11T18:54:20.159Z,101178.69
2022-09-11T18:56:49.169Z,101181.78
2022-09-11T18:59:16.586Z,101183.91
2022-09-11T19:01:43.376Z,101182.47
2022-09-11T19:04:12.164Z,101191.94
2022-09-11T19:06:39.415Z,101191.44
2022-09-11T19:09:10.243Z,101189.50
2022-09-11T19:11:37.121Z,101192.69
2022-09-11T19:14:08.129Z,101198.41
2022-09-11T19:16:35.349Z,101197.16
2022-09-11T19:19:03.003Z,101188.78
2022-09-11T19:21:29.954Z,101185.75
2022-09-11T19:24:00.155Z,101197.22
2022-09-11T19:26:32.817Z,101200.09
2022-09-11T19:29:00.312Z,101203.28
2022-09-11T19:31:29.484Z,101202.75
2022-09-11T19:33:57.903Z,101205.84
2022-09-11T19:36:26.928Z,101204.13
2022-09-11T19:38:56.130Z,101206.97
2022-09-11T19:41:25.997Z,101213.50
2022-09-11T19:43:54.209Z,101213.81
2022-09-11T19:46:24.054Z,101214.69
2022-09-11T19:48:53.392Z,101222.34
2022-09-11T19:51:24.630Z,101217.53
2022-09-11T19:54:00.231Z,101222.16
2022-09-11T19:56:27.932Z,101214.81
2022-09-11T19:58:55.085Z,101219.47
2022-09-11T20:01:24.785Z,101222.19
2022-09-11T20:03:53.835Z,101215.69
2022-09-11T20:06:23.273Z,101218.63
2022-09-11T20:08:59.036Z,101219.34
2022-09-11T20:11:34.895Z,101217.16
2022-09-11T20:14:01.799Z,101215.81
2022-09-11T20:16:29.143Z,101215.03
2022-09-11T20:19:00.324Z,101221.25
2022-09-11T20:21:27.174Z,101222.81
2022-09-11T20:23:55.517Z,101220.53
2022-09-11T20:26:27.868Z,101223.56
2022-09-11T20:29:02.525Z,101226.63
2022-09-11T20:31:32.333Z,101222.75
2022-09-11T20:34:00.713Z,101222.94
2022-09-11T20:36:30.083Z,101222.22
2022-09-11T20:39:00.058Z,101218.84
2022-09-11T20:41:29.851Z,101214.72
2022-09-11T20:43:58.119Z,101227.84
2022-09-11T20:46:25.485Z,101223.75
2022-09-11T20:48:53.696Z,101225.75
2022-09-11T20:51:21.731Z,101229.41
2022-09-11T20:53:49.084Z,101231.53
2022-09-11T20:56:19.607Z,101233.28
2022-09-11T20:58:46.408Z,101238.09
2022-09-11T21:01:16.553Z,101237.81
2022-09-11T21:03:47.810Z,101236.25
2022-09-11T21:06:14.546Z,101223.22
2022-09-11T21:08:42.290Z,101228.47
2022-09-11T21:11:09.834Z,101225.75
2022-09-11T21:13:42.299Z,101232.28
2022-09-11T21:16:11.571Z,101229.63
2022-09-11T21:18:39.813Z,101222.31
2022-09-11T21:21:07.336Z,101229.94
2022-09-11T21:23:34.251Z,101228.06
2022-09-11T21:26:01.051Z,101231.44
2022-09-11T21:28:28.069Z,101231.34
2022-09-11T21:30:57.874Z,101228.59
2022-09-11T21:33:24.676Z,101228.38
2022-09-11T21:35:52.696Z,101233.97
2022-09-11T21:38:28.616Z,101232.72
2022-09-11T21:40:57.356Z,101238.72
2022-09-11T21:43:24.255Z,101238.31
2022-09-11T21:45:51.117Z,101231.34
2022-09-11T21:48:17.729Z,101230.28
2022-09-11T21:50:44.344Z,101238.06
2022-09-11T21:53:11.573Z,101227.34
2022-09-11T21:55:40.074Z,101229.56
2022-09-11T21:58:07.336Z,101232.59
2022-09-11T22:00:42.564Z,101228.94
2022-09-11T22:03:14.413Z,101221.66
2022-09-11T22:05:43.454Z,101220.50
2022-09-11T22:08:11.798Z,101222.81
2022-09-11T22:10:47.025Z,101219.13
2022-09-11T22:13:13.702Z,101221.34
2022-09-11T22:15:44.947Z,101218.81
2022-09-11T22:18:12.260Z,101220.38
2022-09-11T22:20:40.623Z,101227.31
2022-09-11T22:23:08.668Z,101223.63
2022-09-11T22:25:36.864Z,101227.75
2022-09-11T22:28:04.736Z,101217.94
2022-09-11T22:30:31.955Z,101228.38
2022-09-11T22:32:59.849Z,101223.00
2022-09-11T22:35:27.528Z,101226.25
2022-09-11T22:37:54.200Z,101225.94
2022-09-11T22:40:20.794Z,101223.72
2022-09-11T22:42:47.656Z,101230.94
2022-09-11T22:45:14.325Z,101239.47
2022-09-11T22:47:40.916Z,101228.81
2022-09-11T22:50:07.923Z,101237.34
2022-09-11T22:52:34.540Z,101227.75
2022-09-11T22:55:01.220Z,101228.81
2022-09-11T22:57:29.264Z,101239.13
2022-09-11T22:59:56.285Z,101230.38
2022-09-11T23:02:22.975Z,101230.28
2022-09-11T23:05:08.439Z,101232.78
2022-09-11T23:07:35.004Z,101233.41
2022-09-11T23:10:02.031Z,101229.84
2022-09-11T23:12:28.661Z,101227.22
2022-09-11T23:14:55.973Z,101223.13
2022-09-11T23:17:22.573Z,101223.34
2022-09-11T23:19:49.224Z,101222.00
2022-09-11T23:22:15.785Z,101225.56
2022-09-11T23:24:42.418Z,101226.75
2022-09-11T23:27:09.141Z,101220.88
2022-09-11T23:29:35.772Z,101216.75
2022-09-11T23:32:02.756Z,101217.59
2022-09-11T23:34:29.413Z,101221.50
2022-09-11T23:36:56.090Z,101217.00
2022-09-11T23:39:22.664Z,101212.94
2022-09-11T23:41:49.583Z,101223.22
2022-09-11T23:44:16.242Z,101222.31
2022-09-11T23:46:42.956Z,101222.72
2022-09-11T23:49:11.863Z,101223.38
2022-09-11T23:51:38.923Z,101220.31
2022-09-11T23:54:05.848Z,101217.34
2022-09-11T23:56:32.611Z,101213.88
2022-09-11T23:58:59.370Z,101203.56
